Time;durP1;ratioP1;P1;durP2;ratioP2;P2;SDS_P1;SDS_P2;PMS_P1;PMS_P2;Temp;Humidity;BMP_temperature;BMP_pressure;BME280_temperature;BME280_humidity;BME280_pressure;Samples;Min_cycle;Max_cycle;Signal;HPM_P1;HPM_P2
2022/02/24 00:00:20;;;;;;;;;;;;;;;19.29;43.14;101270.19;5075881;28;865;-58
2022/02/24 00:02:45;;;;;;;;;;;;;;;19.40;42.99;101273.75;5076236;28;1977;-58
2022/02/24 00:05:11;;;;;;;;;;;;;;;19.27;43.26;101272.41;5076523;28;830;-57
2022/02/24 00:07:37;;;;;;;;;;;;;;;19.29;43.21;101267.41;5108608;28;1096;-58
2022/02/24 00:10:03;;;;;;;;;;;;;;;19.33;43.16;101265.75;5076136;28;958;-58
2022/02/24 00:12:29;;;;;;;;;;;;;;;19.33;42.98;101274.03;5075745;28;848;-58
2022/02/24 00:14:56;;;;;;;;;;;;;;;19.32;42.93;101269.59;5071777;28;1258;-58
2022/02/24 00:17:21;;;;;;;;;;;;;;;19.36;43.08;101265.19;5056150;28;891;-58
2022/02/24 00:19:47;;;;;;;;;;;;;;;19.29;43.16;101271.03;5056336;28;872;-58
2022/02/24 00:22:12;;;;;;;;;;;;;;;19.28;43.17;101260.28;5056335;28;1909;-58
2022/02/24 00:24:38;;;;;;;;;;;;;;;19.26;42.99;101268.81;5055537;28;834;-58
2022/02/24 00:27:03;;;;;;;;;;;;;;;19.33;43.12;101265.75;5056494;28;866;-58
2022/02/24 00:29:28;;;;;;;;;;;;;;;19.36;42.76;101270.69;5038390;28;1079;-58
2022/02/24 00:31:54;;;;;;;;;;;;;;;19.39;43.00;101267.41;5055643;28;820;-58
2022/02/24 00:34:23;;;;;;;;;;;;;;;19.37;43.11;101268.78;5056195;28;1071;-58
2022/02/24 00:36:52;;;;;;;;;;;;;;;19.35;43.15;101266.31;5055903;28;902;-58
2022/02/24 00:39:17;;;;;;;;;;;;;;;19.36;43.05;101267.94;5038223;28;754;-59
2022/02/24 00:41:43;;;;;;;;;;;;;;;19.41;42.89;101256.09;5055561;28;1914;-59
2022/02/24 00:44:08;;;;;;;;;;;;;;;19.33;42.93;101251.97;5056125;28;1468;-58
2022/02/24 00:46:33;;;;;;;;;;;;;;;19.35;43.00;101255.28;5055530;28;821;-58
2022/02/24 00:48:59;;;;;;;;;;;;;;;19.30;43.15;101247.03;5056007;28;818;-58
2022/02/24 00:51:24;;;;;;;;;;;;;;;19.27;43.41;101247.59;5056115;28;836;-57
2022/02/24 00:53:50;;;;;;;;;;;;;;;19.28;43.32;101246.50;5055735;28;750;-58
2022/02/24 00:56:15;;;;;;;;;;;;;;;19.33;43.29;101243.69;5055833;28;774;-58
2022/02/24 00:58:41;;;;;;;;;;;;;;;19.33;43.26;101243.69;5055667;28;842;-58
2022/02/24 01:01:06;;;;;;;;;;;;;;;19.39;43.09;101236.22;5055347;28;1988;-58
2022/02/24 01:03:32;;;;;;;;;;;;;;;19.44;42.82;101242.56;5055610;28;821;-58
2022/02/24 01:05:57;;;;;;;;;;;;;;;19.42;42.98;101239.25;5056039;28;834;-58
2022/02/24 01:08:22;;;;;;;;;;;;;;;19.46;42.78;101234.84;5055476;28;778;-57
2022/02/24 01:10:48;;;;;;;;;;;;;;;19.51;42.68;101239.50;5055743;28;872;-57
2022/02/24 01:13:13;;;;;;;;;;;;;;;19.43;42.71;101245.59;5061233;28;1112;-58
2022/02/24 01:15:42;;;;;;;;;;;;;;;19.40;42.67;101249.72;5074973;28;798;-57
2022/02/24 01:18:10;;;;;;;;;;;;;;;19.46;42.92;101245.88;5075345;28;856;-57
2022/02/24 01:20:35;;;;;;;;;;;;;;;19.48;42.56;101251.91;5108385;28;1910;-57
2022/02/24 01:23:01;;;;;;;;;;;;;;;19.46;42.94;101256.91;5075453;28;880;-58
2022/02/24 01:25:26;;;;;;;;;;;;;;;19.45;42.69;101249.72;5076377;28;727;-58
2022/02/24 01:27:52;;;;;;;;;;;;;;;19.48;42.83;101259.38;5075119;28;812;-58
2022/02/24 01:30:18;;;;;;;;;;;;;;;19.54;42.43;101246.38;5075027;28;855;-58
2022/02/24 01:32:43;;;;;;;;;;;;;;;19.55;42.57;101257.13;5075853;28;753;-58
2022/02/24 01:35:09;;;;;;;;;;;;;;;19.61;42.52;101255.19;5075771;28;1036;-58
2022/02/24 01:37:34;;;;;;;;;;;;;;;19.64;42.52;101257.38;5075406;28;823;-58
2022/02/24 01:40:00;;;;;;;;;;;;;;;19.60;42.51;101257.13;5075688;28;942;-58
2022/02/24 01:42:25;;;;;;;;;;;;;;;19.59;42.51;101260.97;5074889;28;1897;-58
2022/02/24 01:44:51;;;;;;;;;;;;;;;19.64;42.39;101265.66;5075251;28;773;-58
2022/02/24 01:47:16;;;;;;;;;;;;;;;19.58;42.57;101259.31;5074959;28;856;-58
2022/02/24 01:49:42;;;;;;;;;;;;;;;19.50;42.84;101268.19;5075659;28;983;-58
2022/02/24 01:52:08;;;;;;;;;;;;;;;19.57;42.56;101260.44;5074990;28;849;-58
2022/02/24 01:54:34;;;;;;;;;;;;;;;19.55;42.55;101270.94;5077617;28;738;-58
2022/02/24 01:57:00;;;;;;;;;;;;;;;19.50;42.63;101270.94;5079122;28;831;-57
2022/02/24 01:59:26;;;;;;;;;;;;;;;19.56;42.60;101253.28;5078700;28;829;-57
2022/02/24 02:01:51;;;;;;;;;;;;;;;19.52;42.76;101267.88;5078926;28;1914;-57
2022/02/24 02:04:17;;;;;;;;;;;;;;;19.56;42.57;101266.22;5079002;28;785;-57
2022/02/24 02:06:42;;;;;;;;;;;;;;;19.44;43.01;101267.38;5110850;28;1129;-57
2022/02/24 02:09:08;;;;;;;;;;;;;;;19.35;43.12;101266.31;5078526;28;773;-57
2022/02/24 02:11:34;;;;;;;;;;;;;;;19.33;43.14;101271.28;5078803;28;820;-57
2022/02/24 02:13:59;;;;;;;;;;;;;;;19.39;43.00;101266.56;5078684;28;1108;-57
2022/02/24 02:16:25;;;;;;;;;;;;;;;19.39;42.84;101261.91;5078550;28;795;-57
2022/02/24 02:18:50;;;;;;;;;;;;;;;19.35;43.07;101260.81;5077976;28;917;-57
2022/02/24 02:21:15;;;;;;;;;;;;;;;19.38;43.03;101260.22;5078248;28;1913;-57
2022/02/24 02:23:41;;;;;;;;;;;;;;;19.34;43.25;101252.81;5078479;28;865;-56
2022/02/24 02:26:06;;;;;;;;;;;;;;;19.39;42.99;101250.00;5078199;28;841;-57
2022/02/24 02:28:32;;;;;;;;;;;;;;;19.34;43.04;101253.63;5110824;28;1003;-57
2022/02/24 02:30:57;;;;;;;;;;;;;;;19.36;43.12;101251.41;5078098;28;863;-57
2022/02/24 02:33:23;;;;;;;;;;;;;;;19.28;43.24;101260.28;5077963;28;861;-57
2022/02/24 02:35:48;;;;;;;;;;;;;;;19.34;43.00;101256.38;5078560;28;844;-57
2022/02/24 02:38:14;;;;;;;;;;;;;;;19.42;42.79;101255.81;5077714;28;932;-57
2022/02/24 02:40:39;;;;;;;;;;;;;;;19.41;42.87;101254.16;5077994;28;1893;-57
2022/02/24 02:43:05;;;;;;;;;;;;;;;19.35;42.92;101252.53;5078376;28;799;-57
2022/02/24 02:45:31;;;;;;;;;;;;;;;19.49;42.44;101261.84;5077060;28;811;-57
2022/02/24 02:47:59;;;;;;;;;;;;;;;19.37;43.07;101261.34;5078254;28;747;-57
2022/02/24 02:50:24;;;;;;;;;;;;;;;19.40;42.81;101260.75;5077796;28;904;-58
2022/02/24 02:52:50;;;;;;;;;;;;;;;19.31;43.23;101257.75;5077829;28;908;-57
2022/02/24 02:55:16;;;;;;;;;;;;;;;19.27;43.18;101258.63;5078259;28;803;-57
2022/02/24 02:57:41;;;;;;;;;;;;;;;19.22;43.35;101253.91;5078058;28;840;-57
2022/02/24 03:00:08;;;;;;;;;;;;;;;19.29;43.10;101267.41;5077370;28;875;-58
2022/02/24 03:02:34;;;;;;;;;;;;;;;19.24;43.26;101264.69;5077685;28;1999;-57
2022/02/24 03:04:59;;;;;;;;;;;;;;;19.32;43.10;101262.19;5077137;28;785;-58
2022/02/24 03:07:25;;;;;;;;;;;;;;;19.18;43.35;101260.28;5077455;28;750;-57
2022/02/24 03:09:50;;;;;;;;;;;;;;;19.25;43.33;101266.31;5077212;28;871;-58
2022/02/24 03:12:16;;;;;;;;;;;;;;;19.18;43.27;101271.31;5077792;28;769;-57
2022/02/24 03:14:41;;;;;;;;;;;;;;;19.09;43.72;101260.84;5076919;28;1019;-57
2022/02/24 03:17:07;;;;;;;;;;;;;;;19.09;43.68;101266.38;5077453;28;856;-57
2022/02/24 03:19:33;;;;;;;;;;;;;;;19.15;43.52;101265.25;5077852;28;847;-57
2022/02/24 03:21:58;;;;;;;;;;;;;;;19.14;43.42;101266.38;5077546;28;1976;-57
2022/02/24 03:24:24;;;;;;;;;;;;;;;19.08;43.67;101272.16;5075764;28;1013;-57
2022/02/24 03:26:49;;;;;;;;;;;;;;;19.10;43.60;101273.53;5077883;28;841;-58
2022/02/24 03:29:15;;;;;;;;;;;;;;;19.17;43.17;101264.97;5076795;28;843;-58
2022/02/24 03:31:40;;;;;;;;;;;;;;;19.10;43.35;101269.97;5077375;28;906;-58
2022/02/24 03:34:06;;;;;;;;;;;;;;;19.09;43.52;101269.13;5077424;28;873;-58
2022/02/24 03:36:31;;;;;;;;;;;;;;;19.09;43.33;101274.63;5076478;28;868;-58
2022/02/24 03:38:57;;;;;;;;;;;;;;;19.09;43.34;101273.81;5077444;28;881;-58
2022/02/24 03:41:22;;;;;;;;;;;;;;;19.09;43.36;101276.56;5076737;28;1993;-57
2022/02/24 03:43:48;;;;;;;;;;;;;;;19.05;43.41;101281.81;5076793;28;821;-58
2022/02/24 03:46:13;;;;;;;;;;;;;;;19.01;43.43;101275.19;5076655;28;866;-57
2022/02/24 03:48:39;;;;;;;;;;;;;;;19.12;43.26;101273.25;5076620;28;788;-58
2022/02/24 03:51:05;;;;;;;;;;;;;;;19.06;43.39;101271.63;5076541;28;726;-58
2022/02/24 03:53:30;;;;;;;;;;;;;;;18.99;43.52;101274.66;5076922;28;770;-58
2022/02/24 03:55:55;;;;;;;;;;;;;;;19.00;43.53;101278.22;5076417;28;832;-58
2022/02/24 03:58:21;;;;;;;;;;;;;;;19.06;43.35;101275.19;5076667;28;739;-58
2022/02/24 04:00:46;;;;;;;;;;;;;;;18.95;43.60;101281.81;5076024;28;1914;-58
2022/02/24 04:03:12;;;;;;;;;;;;;;;19.07;43.37;101284.28;5076882;28;825;-58
2022/02/24 04:05:37;;;;;;;;;;;;;;;19.08;43.34;101283.19;5076211;28;965;-58
2022/02/24 04:08:03;;;;;;;;;;;;;;;19.09;43.26;101279.31;5076651;28;762;-58
2022/02/24 04:10:29;;;;;;;;;;;;;;;19.04;43.52;101282.94;5076517;28;777;-57
2022/02/24 04:12:54;;;;;;;;;;;;;;;19.08;43.28;101292.31;5076164;28;1009;-57
2022/02/24 04:15:20;;;;;;;;;;;;;;;19.15;43.41;101290.06;5076004;28;888;-57
2022/02/24 04:17:45;;;;;;;;;;;;;;;19.11;43.25;101297.25;5076262;28;865;-56
2022/02/24 04:20:10;;;;;;;;;;;;;;;19.07;43.47;101292.56;5076132;28;917;-57
2022/02/24 04:22:36;;;;;;;;;;;;;;;19.05;43.41;101300.28;5076398;28;1910;-57
2022/02/24 04:25:01;;;;;;;;;;;;;;;19.03;43.40;101295.06;5075824;28;878;-57
2022/02/24 04:27:27;;;;;;;;;;;;;;;19.09;43.23;101291.16;5076140;28;931;-54
2022/02/24 04:29:52;;;;;;;;;;;;;;;19.10;43.34;101297.53;5076477;28;900;-54
2022/02/24 04:32:18;;;;;;;;;;;;;;;19.07;43.44;101304.41;5075764;28;949;-54
2022/02/24 04:34:43;;;;;;;;;;;;;;;19.09;43.26;101299.44;5076099;28;903;-55
2022/02/24 04:37:09;;;;;;;;;;;;;;;19.03;43.39;101297.81;5076145;28;801;-54
2022/02/24 04:39:36;;;;;;;;;;;;;;;19.05;43.65;101295.59;5075496;28;765;-54
2022/02/24 04:42:01;;;;;;;;;;;;;;;19.08;43.20;101310.75;5075724;28;1905;-55
2022/02/24 04:44:26;;;;;;;;;;;;;;;19.01;43.48;101302.75;5076020;28;817;-55
2022/02/24 04:46:52;;;;;;;;;;;;;;;18.96;43.57;101305.53;5075490;28;833;-54
2022/02/24 04:49:17;;;;;;;;;;;;;;;19.00;43.38;101311.31;5075874;28;1091;-54
2022/02/24 04:51:43;;;;;;;;;;;;;;;19.05;43.50;101316.81;5075172;28;1371;-51
2022/02/24 04:54:08;;;;;;;;;;;;;;;19.03;43.35;101322.63;5075569;28;965;-54
2022/02/24 04:56:34;;;;;;;;;;;;;;;19.04;43.30;101321.53;5076436;28;914;-53
2022/02/24 04:58:59;;;;;;;;;;;;;;;19.00;43.64;101333.34;5075923;28;757;-52
2022/02/24 05:01:25;;;;;;;;;;;;;;;19.06;43.22;101332.25;5075656;28;1910;-53
2022/02/24 05:03:50;;;;;;;;;;;;;;;19.08;43.27;101332.81;5107960;28;1215;-53
2022/02/24 05:06:15;;;;;;;;;;;;;;;18.93;43.44;101334.47;5075343;28;949;-54
2022/02/24 05:08:41;;;;;;;;;;;;;;;19.05;43.43;101338.88;5075736;28;979;-54
2022/02/24 05:11:06;;;;;;;;;;;;;;;18.97;43.45;101352.09;5075863;28;797;-55
2022/02/24 05:13:32;;;;;;;;;;;;;;;18.97;43.30;101346.59;5075218;28;997;-53
2022/02/24 05:15:57;;;;;;;;;;;;;;;19.03;43.36;101349.31;5075197;28;922;-54
2022/02/24 05:18:23;;;;;;;;;;;;;;;19.02;43.16;101350.44;5075315;28;849;-54
2022/02/24 05:20:48;;;;;;;;;;;;;;;18.92;43.41;101345.78;5075008;28;1926;-52
2022/02/24 05:23:14;;;;;;;;;;;;;;;18.95;43.29;101347.97;5075276;28;1075;-53
2022/02/24 05:25:39;;;;;;;;;;;;;;;18.92;43.58;101343.00;5107381;28;1122;-54
2022/02/24 05:28:05;;;;;;;;;;;;;;;18.97;43.46;101360.38;5075354;28;1284;-54
2022/02/24 05:30:31;;;;;;;;;;;;;;;18.87;43.72;101354.00;5078129;28;1145;-54
2022/02/24 05:32:56;;;;;;;;;;;;;;;18.94;43.31;101355.41;5079620;28;825;-52
2022/02/24 05:35:22;;;;;;;;;;;;;;;19.00;43.19;101367.28;5079242;28;758;-54
2022/02/24 05:37:47;;;;;;;;;;;;;;;18.89;43.43;101368.38;5079567;28;751;-54
2022/02/24 05:40:13;;;;;;;;;;;;;;;18.91;43.56;101374.41;5079129;28;1038;-54
2022/02/24 05:42:38;;;;;;;;;;;;;;;18.91;43.36;101372.47;5078669;28;1921;-54
2022/02/24 05:45:04;;;;;;;;;;;;;;;18.86;43.46;101374.38;5078650;28;1292;-54
2022/02/24 05:47:29;;;;;;;;;;;;;;;18.85;43.54;101372.75;5078627;28;912;-54
2022/02/24 05:49:55;;;;;;;;;;;;;;;18.83;43.56;101381.28;5078946;28;821;-54
2022/02/24 05:52:20;;;;;;;;;;;;;;;18.91;43.57;101375.25;5078918;28;1163;-51
2022/02/24 05:54:47;;;;;;;;;;;;;;;19.01;43.12;101379.94;5078903;28;1159;-53
2022/02/24 05:57:12;;;;;;;;;;;;;;;18.90;43.36;101387.38;5078670;28;855;-54
2022/02/24 05:59:38;;;;;;;;;;;;;;;18.92;43.48;101395.38;5078981;28;948;-53
2022/02/24 06:02:03;;;;;;;;;;;;;;;18.85;43.42;101400.31;5078628;28;1897;-55
2022/02/24 06:04:29;;;;;;;;;;;;;;;18.81;43.57;101406.34;5078351;28;1008;-57
2022/02/24 06:06:55;;;;;;;;;;;;;;;18.84;43.67;101404.97;5078599;28;1051;-55
2022/02/24 06:09:20;;;;;;;;;;;;;;;18.90;43.39;101411.34;5078369;28;836;-56
2022/02/24 06:11:46;;;;;;;;;;;;;;;18.89;43.32;101401.44;5078191;28;742;-52
2022/02/24 06:14:12;;;;;;;;;;;;;;;18.85;43.40;101408.56;5079125;28;1465;-53
2022/02/24 06:16:37;;;;;;;;;;;;;;;18.89;43.21;101423.47;5078566;28;824;-55
2022/02/24 06:19:03;;;;;;;;;;;;;;;18.81;43.48;101417.34;5077987;28;845;-56
2022/02/24 06:21:28;;;;;;;;;;;;;;;18.87;43.19;101420.13;5078186;28;1979;-56
2022/02/24 06:23:54;;;;;;;;;;;;;;;18.81;43.23;101422.06;5078678;28;825;-56
2022/02/24 06:26:19;;;;;;;;;;;;;;;18.85;43.19;101422.34;5078409;28;739;-56
2022/02/24 06:28:46;;;;;;;;;;;;;;;18.81;43.29;101438.59;5078708;28;823;-56
2022/02/24 06:31:12;;;;;;;;;;;;;;;18.96;42.68;101427.63;5078327;28;899;-56
2022/02/24 06:33:37;;;;;;;;;;;;;;;18.88;42.99;101432.84;5077038;28;1044;-58
2022/02/24 06:36:03;;;;;;;;;;;;;;;18.84;43.09;101432.53;5078434;28;853;-56
2022/02/24 06:38:28;;;;;;;;;;;;;;;18.87;42.65;101431.16;5078340;28;811;-56
2022/02/24 06:40:54;;;;;;;;;;;;;;;18.89;42.64;101431.75;5076971;28;1902;-57
2022/02/24 06:43:20;;;;;;;;;;;;;;;18.84;42.80;101435.28;5077735;28;1490;-63
2022/02/24 06:45:45;;;;;;;;;;;;;;;18.80;42.71;101432.25;5085531;28;1261;-62
2022/02/24 06:48:11;;;;;;;;;;;;;;;18.83;42.60;101436.41;5078770;28;1407;-61
2022/02/24 06:50:36;;;;;;;;;;;;;;;18.74;42.90;101433.31;5075927;28;1408;-63
2022/02/24 06:53:02;;;;;;;;;;;;;;;18.85;42.60;101438.88;5077509;28;1316;-62
2022/02/24 06:55:27;;;;;;;;;;;;;;;18.87;42.39;101440.25;5077116;28;1269;-65
2022/02/24 06:57:53;;;;;;;;;;;;;;;18.89;42.42;101440.84;5078068;28;1388;-66
2022/02/24 07:00:18;;;;;;;;;;;;;;;18.87;42.50;101436.66;5078332;28;1537;-67
2022/02/24 07:02:44;;;;;;;;;;;;;;;19.04;42.13;101437.28;5077204;28;1898;-61
2022/02/24 07:05:10;;;;;;;;;;;;;;;19.23;41.65;101440.31;5077753;28;857;-59
2022/02/24 07:07:35;;;;;;;;;;;;;;;19.31;41.62;101447.22;5078463;28;1203;-58
2022/02/24 07:10:02;;;;;;;;;;;;;;;19.32;41.53;101437.81;5078959;28;1348;-61
2022/02/24 07:12:28;;;;;;;;;;;;;;;19.44;41.55;101435.59;5076988;28;1440;-63
2022/02/24 07:14:53;;;;;;;;;;;;;;;19.40;41.48;101442.78;5081079;28;1435;-65
2022/02/24 07:17:19;;;;;;;;;;;;;;;19.35;41.53;101442.81;5079221;28;1392;-60
2022/02/24 07:19:44;;;;;;;;;;;;;;;19.66;41.29;101442.78;5079202;28;1212;-62
2022/02/24 07:22:10;;;;;;;;;;;;;;;19.87;40.50;101449.09;5079712;28;1910;-65
2022/02/24 07:24:35;;;;;;;;;;;;;;;19.89;40.36;101443.31;5079746;28;1231;-60
2022/02/24 07:27:00;;;;;;;;;;;;;;;19.47;41.21;101431.47;5076474;28;1194;-60
2022/02/24 07:29:26;;;;;;;;;;;;;;;19.11;41.39;101443.34;5077238;28;837;-60
2022/02/24 07:31:51;;;;;;;;;;;;;;;18.69;41.04;101438.84;5077473;28;1596;-63
2022/02/24 07:34:17;;;;;;;;;;;;;;;18.46;40.72;101431.88;5081957;28;1454;-60
2022/02/24 07:36:43;;;;;;;;;;;;;;;18.45;41.45;101436.56;5075124;28;1434;-61
2022/02/24 07:39:10;;;;;;;;;;;;;;;19.12;42.63;101431.19;5075354;28;921;-61
2022/02/24 07:41:37;;;;;;;;;;;;;;;20.33;39.70;101443.44;5075067;28;1971;-61
2022/02/24 07:44:03;;;;;;;;;;;;;;;19.66;40.99;101440.81;5072197;28;1214;-60
2022/02/24 07:46:28;;;;;;;;;;;;;;;19.09;42.07;101436.44;5079961;28;1260;-60
2022/02/24 07:48:54;;;;;;;;;;;;;;;18.80;41.53;101437.75;5083287;28;1278;-62
2022/02/24 07:51:19;;;;;;;;;;;;;;;18.59;41.78;101441.56;5079563;28;1261;-61
2022/02/24 07:53:44;;;;;;;;;;;;;;;18.74;42.43;101433.31;5075857;28;1596;-60
2022/02/24 07:56:10;;;;;;;;;;;;;;;19.06;42.76;101446.09;5075954;28;1511;-60
2022/02/24 07:58:35;;;;;;;;;;;;;;;19.60;41.12;101436.44;5075959;28;1320;-61
2022/02/24 08:01:01;;;;;;;;;;;;;;;19.87;40.66;101446.34;5076618;28;1965;-60
2022/02/24 08:03:26;;;;;;;;;;;;;;;20.06;40.13;101451.25;5075447;28;1364;-60
2022/02/24 08:05:53;;;;;;;;;;;;;;;19.87;40.52;101449.09;5076565;28;1354;-63
2022/02/24 08:08:18;;;;;;;;;;;;;;;19.59;41.18;101450.50;5076251;28;1249;-61
2022/02/24 08:10:44;;;;;;;;;;;;;;;19.53;41.74;101457.13;5077441;28;1332;-61
2022/02/24 08:13:09;;;;;;;;;;;;;;;19.31;42.15;101455.50;5076446;28;1322;-62
2022/02/24 08:15:35;;;;;;;;;;;;;;;19.18;42.60;101447.75;5072919;28;1155;-63
2022/02/24 08:18:00;;;;;;;;;;;;;;;19.11;42.75;101446.09;5076484;28;1305;-62
2022/02/24 08:20:26;;;;;;;;;;;;;;;19.12;43.10;101444.97;5076678;28;1285;-65
2022/02/24 08:22:53;;;;;;;;;;;;;;;19.00;42.59;101440.84;5076353;28;1921;-62
2022/02/24 08:25:19;;;;;;;;;;;;;;;18.86;42.73;101440.50;5076402;28;1540;-60
2022/02/24 08:27:44;;;;;;;;;;;;;;;18.87;42.92;101444.94;5076006;28;1229;-61
2022/02/24 08:30:11;;;;;;;;;;;;;;;18.84;43.21;101448.22;5075381;28;968;-61
2022/02/24 08:32:37;;;;;;;;;;;;;;;18.86;42.86;101448.78;5073762;28;1178;-63
2022/02/24 08:35:03;;;;;;;;;;;;;;;18.78;42.99;101439.13;5079382;28;1422;-64
2022/02/24 08:37:29;;;;;;;;;;;;;;;18.77;43.12;101454.81;5075452;28;1314;-61
2022/02/24 08:39:54;;;;;;;;;;;;;;;18.75;43.25;101439.69;5075796;28;1301;-60
2022/02/24 08:42:22;;;;;;;;;;;;;;;18.79;43.36;101451.81;5076575;28;1902;-61
2022/02/24 08:44:49;;;;;;;;;;;;;;;18.72;43.55;101448.47;5075977;28;1198;-64
2022/02/24 08:47:14;;;;;;;;;;;;;;;18.78;43.77;101444.63;5074923;28;1375;-64
2022/02/24 08:49:39;;;;;;;;;;;;;;;18.75;43.91;101451.53;5076139;28;1301;-64
2022/02/24 08:52:05;;;;;;;;;;;;;;;18.65;43.80;101451.50;5076755;28;1551;-65
2022/02/24 08:54:32;;;;;;;;;;;;;;;18.75;43.85;101451.53;5074826;28;1253;-66
2022/02/24 08:57:00;;;;;;;;;;;;;;;18.69;43.83;101447.09;5075023;28;885;-64
2022/02/24 08:59:26;;;;;;;;;;;;;;;18.62;43.90;101446.50;5075319;28;1278;-61
2022/02/24 09:01:51;;;;;;;;;;;;;;;18.60;44.08;101441.28;5084498;28;1921;-61
2022/02/24 09:04:18;;;;;;;;;;;;;;;18.73;44.48;101456.50;5083248;28;1268;-63
2022/02/24 09:06:43;;;;;;;;;;;;;;;18.91;45.04;101455.16;5079321;28;946;-59
2022/02/24 09:09:09;;;;;;;;;;;;;;;19.17;45.28;101448.84;5081041;28;1597;-60
2022/02/24 09:11:34;;;;;;;;;;;;;;;19.29;45.19;101457.69;5080091;28;1330;-62
2022/02/24 09:14:00;;;;;;;;;;;;;;;18.72;46.69;101485.13;5083452;28;1570;-60
2022/02/24 09:16:26;;;;;;;;;;;;;;;18.50;47.97;101452.28;5079571;28;1330;-62
2022/02/24 09:18:51;;;;;;;;;;;;;;;18.54;49.18;101455.31;5079553;28;1321;-67
2022/02/24 09:21:17;;;;;;;;;;;;;;;19.71;46.02;101456.53;5079469;28;1884;-65
2022/02/24 09:23:43;;;;;;;;;;;;;;;20.90;43.00;101456.13;5079573;28;1388;-62
2022/02/24 09:26:08;;;;;;;;;;;;;;;20.67;43.24;101467.59;5079773;28;1345;-61
2022/02/24 09:28:33;;;;;;;;;;;;;;;21.37;41.38;101457.44;5080047;28;1525;-65
2022/02/24 09:30:59;;;;;;;;;;;;;;;20.41;42.08;101457.75;5084750;28;1585;-63
2022/02/24 09:33:26;;;;;;;;;;;;;;;19.61;43.30;101451.03;5082920;28;1425;-66
2022/02/24 09:35:52;;;;;;;;;;;;;;;18.69;43.36;101447.09;5078644;28;1535;-64
2022/02/24 09:38:17;;;;;;;;;;;;;;;18.94;45.81;101460.16;5076671;28;1573;-61
2022/02/24 09:40:45;;;;;;;;;;;;;;;19.65;45.52;101458.47;5076704;28;1210;-68
2022/02/24 09:43:11;;;;;;;;;;;;;;;20.30;42.82;101445.91;5078954;28;1910;-63
2022/02/24 09:45:37;;;;;;;;;;;;;;;19.46;43.82;101443.59;5076378;28;1495;-60
2022/02/24 09:48:05;;;;;;;;;;;;;;;19.04;43.21;101448.31;5080825;28;1251;-60
2022/02/24 09:50:32;;;;;;;;;;;;;;;18.66;42.95;101433.03;5078320;28;762;-61
2022/02/24 09:52:58;;;;;;;;;;;;;;;18.18;40.81;101441.41;5078626;28;818;-63
2022/02/24 09:55:23;;;;;;;;;;;;;;;18.11;41.88;101441.66;5077913;28;927;-62
2022/02/24 09:57:49;;;;;;;;;;;;;;;18.51;42.92;101451.19;5077087;28;979;-61
2022/02/24 10:00:14;;;;;;;;;;;;;;;18.38;43.23;101443.41;5077556;28;1055;-61
2022/02/24 10:02:40;;;;;;;;;;;;;;;18.21;42.82;101446.38;5078089;28;1909;-62
2022/02/24 10:05:06;;;;;;;;;;;;;;;18.10;41.98;101439.97;5078232;28;1004;-62
2022/02/24 10:07:35;;;;;;;;;;;;;;;18.01;41.89;101452.63;5078415;28;900;-62
2022/02/24 10:10:19;;;;;;;;;;;;;;;17.88;41.61;101481.38;5077963;28;781;-62
2022/02/24 10:12:57;;;;;;;;;;;;;;;18.90;44.76;101444.41;5073771;28;1111;-60
2022/02/24 10:15:23;;;;;;;;;;;;;;;18.76;44.40;101450.44;5078152;28;884;-59
2022/02/24 10:18:03;;;;;;;;;;;;;;;18.50;43.63;101448.72;5078426;28;1048;-59
2022/02/24 10:20:56;;;;;;;;;;;;;;;18.45;44.17;101453.09;5078433;28;806;-59
2022/02/24 10:23:22;;;;;;;;;;;;;;;18.87;44.71;101478.00;5074416;28;1657;-58
2022/02/24 10:25:51;;;;;;;;;;;;;;;18.78;44.75;101483.22;5110585;28;1296;-58
2022/02/24 10:28:33;;;;;;;;;;;;;;;18.69;44.50;101482.91;5077639;28;975;-60
2022/02/24 10:31:03;;;;;;;;;;;;;;;18.47;43.71;101456.38;5077476;28;1142;-59
2022/02/24 10:33:28;;;;;;;;;;;;;;;18.34;43.21;101456.06;5078795;28;786;-58
2022/02/24 10:35:56;;;;;;;;;;;;;;;18.27;42.94;101462.66;5078197;28;807;-59
2022/02/24 10:38:23;;;;;;;;;;;;;;;18.40;44.06;101455.81;5077767;28;1414;-58
2022/02/24 10:40:49;;;;;;;;;;;;;;;19.35;43.17;101429.00;5109417;28;1399;-63
2022/02/24 10:43:17;;;;;;;;;;;;;;;19.54;42.23;101431.19;5077233;28;1972;-64
2022/02/24 10:45:43;;;;;;;;;;;;;;;18.99;43.18;101434.50;5080920;28;1455;-64
2022/02/24 10:48:09;;;;;;;;;;;;;;;18.76;43.22;101419.28;5077504;28;1325;-60
2022/02/24 10:50:47;;;;;;;;;;;;;;;18.38;42.98;101419.44;5077929;28;1218;-64
2022/02/24 10:53:13;;;;;;;;;;;;;;;18.28;42.32;101419.41;5074958;28;1384;-62
2022/02/24 10:56:11;;;;;;;;;;;;;;;18.36;43.87;101409.81;5077555;28;1534;-59
2022/02/24 10:58:40;;;;;;;;;;;;;;;19.72;41.80;101408.53;5051253;28;1477;-61
2022/02/24 11:01:06;;;;;;;;;;;;;;;19.99;40.73;101408.22;5078475;28;1961;-59
2022/02/24 11:03:31;;;;;;;;;;;;;;;19.21;42.33;101405.84;5076655;28;1306;-63
2022/02/24 11:06:01;;;;;;;;;;;;;;;18.92;42.40;101406.41;5110200;28;1285;-61
2022/02/24 11:08:27;;;;;;;;;;;;;;;18.71;41.44;101400.00;5077872;28;1249;-59
2022/02/24 11:10:53;;;;;;;;;;;;;;;18.38;41.31;101402.13;5107693;28;1365;-60
2022/02/24 11:13:18;;;;;;;;;;;;;;;18.26;40.50;101383.09;5109499;28;1318;-63
2022/02/24 11:15:44;;;;;;;;;;;;;;;17.95;40.36;101389.28;5076947;28;1380;-62
2022/02/24 11:18:09;;;;;;;;;;;;;;;17.98;39.65;101387.09;5102977;28;1522;-60
2022/02/24 11:20:35;;;;;;;;;;;;;;;17.89;39.68;101392.25;5079774;28;1547;-62
2022/02/24 11:23:00;;;;;;;;;;;;;;;17.72;40.82;101389.69;5085919;28;1975;-62
2022/02/24 11:25:28;;;;;;;;;;;;;;;17.96;47.02;101390.09;5107987;28;1274;-64
2022/02/24 11:27:53;;;;;;;;;;;;;;;18.92;46.48;101390.69;5101207;28;1384;-62
2022/02/24 11:30:26;;;;;;;;;;;;;;;20.14;43.17;101393.50;5106537;28;1428;-64
2022/02/24 11:32:51;;;;;;;;;;;;;;;20.65;41.67;101388.81;5075478;28;1249;-65
2022/02/24 11:35:17;;;;;;;;;;;;;;;21.12;40.54;101389.34;5082859;28;1399;-62
2022/02/24 11:37:44;;;;;;;;;;;;;;;20.67;41.30;101389.38;5075360;28;797;-62
2022/02/24 11:40:15;;;;;;;;;;;;;;;21.51;39.27;101392.00;5075941;28;1315;-62
2022/02/24 11:42:41;;;;;;;;;;;;;;;20.91;39.84;101388.69;5076305;28;1913;-68
2022/02/24 11:45:22;;;;;;;;;;;;;;;19.84;41.87;101391.72;5076001;28;1050;-63
2022/02/24 11:47:58;;;;;;;;;;;;;;;19.35;42.03;101384.91;5075534;28;1233;-65
2022/02/24 11:50:35;;;;;;;;;;;;;;;19.29;40.69;101380.47;5073942;28;1206;-64
2022/02/24 11:53:00;;;;;;;;;;;;;;;18.64;39.21;101378.22;5076100;28;1347;-63
2022/02/24 11:55:39;;;;;;;;;;;;;;;18.42;38.36;101371.00;5072080;28;1506;-63
2022/02/24 11:58:24;;;;;;;;;;;;;;;18.63;40.40;101373.81;5076581;28;840;-65
2022/02/24 12:01:09;;;;;;;;;;;;;;;19.48;44.82;101380.72;5075859;28;1542;-63
2022/02/24 12:03:44;;;;;;;;;;;;;;;19.53;44.44;101366.94;5075411;28;1256;-63
2022/02/24 12:06:10;;;;;;;;;;;;;;;19.29;44.18;101378.56;5075573;28;1363;-61
2022/02/24 12:08:54;;;;;;;;;;;;;;;18.99;43.42;101384.91;5107846;28;1400;-62
2022/02/24 12:11:26;;;;;;;;;;;;;;;18.67;41.90;101380.44;5076078;28;1257;-60
2022/02/24 12:13:52;;;;;;;;;;;;;;;18.26;40.93;101372.06;5074037;28;1214;-61
2022/02/24 12:16:19;;;;;;;;;;;;;;;18.39;42.58;101374.31;5075915;28;1290;-64
2022/02/24 12:18:44;;;;;;;;;;;;;;;19.38;45.65;101381.56;5076304;28;930;-64
2022/02/24 12:21:29;;;;;;;;;;;;;;;19.88;44.46;101372.66;5075721;28;1968;-66
2022/02/24 12:23:55;;;;;;;;;;;;;;;19.31;44.49;101370.81;5070052;28;1531;-65
2022/02/24 12:26:39;;;;;;;;;;;;;;;18.86;43.71;101375.22;5074615;28;1202;-65
2022/02/24 12:29:26;;;;;;;;;;;;;;;18.48;42.03;101358.06;5074335;28;1159;-61
2022/02/24 12:31:56;;;;;;;;;;;;;;;18.24;41.73;101360.50;5073114;28;1379;-65
2022/02/24 12:34:21;;;;;;;;;;;;;;;18.92;45.72;101357.59;5075007;28;1376;-64
2022/02/24 12:36:47;;;;;;;;;;;;;;;19.74;44.61;101356.66;5075029;28;1353;-65
2022/02/24 12:39:12;;;;;;;;;;;;;;;19.47;44.34;101352.34;5075978;28;1312;-64
2022/02/24 12:41:38;;;;;;;;;;;;;;;19.03;44.16;101355.69;5076725;28;1972;-61
2022/02/24 12:44:19;;;;;;;;;;;;;;;18.67;42.91;101349.31;5074922;28;1358;-63
2022/02/24 12:46:44;;;;;;;;;;;;;;;18.24;41.31;101338.47;5071783;28;1281;-62